sensor_id;sensor_type;location;lat;lon;timestamp;pressure;altitude;pressure_sealevel;temperature;humidity
10618;BME280;5356;43.526;26.534;2022-07-29T00:01:21;99165.63;;;25.01;92.56
10618;BME280;5356;43.526;26.534;2022-07-29T00:03:47;99167.41;;;24.97;92.63
10618;BME280;5356;43.526;26.534;2022-07-29T00:06:14;99166.25;;;24.90;93.53
10618;BME280;5356;43.526;26.534;2022-07-29T00:08:39;99161.28;;;24.92;93.39
10618;BME280;5356;43.526;26.534;2022-07-29T00:11:05;99160.50;;;24.91;93.11
10618;BME280;5356;43.526;26.534;2022-07-29T00:13:30;99159.19;;;24.89;93.32
10618;BME280;5356;43.526;26.534;2022-07-29T00:15:56;99164.31;;;24.90;93.55
10618;BME280;5356;43.526;26.534;2022-07-29T00:18:21;99162.56;;;24.85;93.59
10618;BME280;5356;43.526;26.534;2022-07-29T00:20:47;99162.06;;;24.83;93.89
10618;BME280;5356;43.526;26.534;2022-07-29T00:23:12;99162.34;;;24.82;94.00
10618;BME280;5356;43.526;26.534;2022-07-29T00:25:37;99154.19;;;24.82;94.01
10618;BME280;5356;43.526;26.534;2022-07-29T00:28:03;99153.53;;;24.76;93.93
10618;BME280;5356;43.526;26.534;2022-07-29T00:30:28;99145.97;;;24.73;94.06
10618;BME280;5356;43.526;26.534;2022-07-29T00:32:54;99157.50;;;24.70;94.40
10618;BME280;5356;43.526;26.534;2022-07-29T00:35:19;99152.53;;;24.63;94.03
10618;BME280;5356;43.526;26.534;2022-07-29T00:38:03;99146.50;;;24.44;94.91
10618;BME280;5356;43.526;26.534;2022-07-29T00:40:29;99156.19;;;24.36;95.11
10618;BME280;5356;43.526;26.534;2022-07-29T00:42:54;99153.53;;;24.23;95.94
10618;BME280;5356;43.526;26.534;2022-07-29T00:45:20;99150.00;;;24.22;95.99
10618;BME280;5356;43.526;26.534;2022-07-29T00:47:47;99152.13;;;24.03;96.69
10618;BME280;5356;43.526;26.534;2022-07-29T00:50:13;99156.81;;;23.88;97.65
10618;BME280;5356;43.526;26.534;2022-07-29T00:52:40;99148.72;;;23.74;97.96
10618;BME280;5356;43.526;26.534;2022-07-29T00:55:08;99149.25;;;23.49;99.35
10618;BME280;5356;43.526;26.534;2022-07-29T00:57:38;99140.31;;;23.48;99.95
10618;BME280;5356;43.526;26.534;2022-07-29T01:00:06;99145.03;;;23.57;100.00
10618;BME280;5356;43.526;26.534;2022-07-29T01:02:32;99141.88;;;23.63;99.91
10618;BME280;5356;43.526;26.534;2022-07-29T01:04:57;99148.72;;;23.61;100.00
10618;BME280;5356;43.526;26.534;2022-07-29T01:07:25;99154.66;;;23.63;100.00
10618;BME280;5356;43.526;26.534;2022-07-29T01:09:52;99152.44;;;23.65;100.00
10618;BME280;5356;43.526;26.534;2022-07-29T01:12:25;99159.81;;;23.64;100.00
10618;BME280;5356;43.526;26.534;2022-07-29T01:14:53;99158.81;;;23.60;100.00
10618;BME280;5356;43.526;26.534;2022-07-29T01:25:05;99152.56;;;23.60;100.00
10618;BME280;5356;43.526;26.534;2022-07-29T01:30:06;99157.38;;;23.63;100.00
10618;BME280;5356;43.526;26.534;2022-07-29T01:32:35;99150.66;;;23.60;100.00
10618;BME280;5356;43.526;26.534;2022-07-29T01:35:14;99149.34;;;23.58;100.00
10618;BME280;5356;43.526;26.534;2022-07-29T01:40:29;99146.88;;;23.47;100.00
10618;BME280;5356;43.526;26.534;2022-07-29T01:42:57;99151.97;;;23.49;100.00
10618;BME280;5356;43.526;26.534;2022-07-29T01:45:33;99153.09;;;23.48;100.00
10618;BME280;5356;43.526;26.534;2022-07-29T01:48:06;99156.94;;;23.47;100.00
10618;BME280;5356;43.526;26.534;2022-07-29T01:50:38;99155.94;;;23.43;100.00
10618;BME280;5356;43.526;26.534;2022-07-29T01:53:10;99151.09;;;23.40;100.00
10618;BME280;5356;43.526;26.534;2022-07-29T01:55:44;99151.09;;;23.40;100.00
10618;BME280;5356;43.526;26.534;2022-07-29T01:58:12;99158.88;;;23.33;100.00
10618;BME280;5356;43.526;26.534;2022-07-29T02:00:40;99155.47;;;23.27;100.00
10618;BME280;5356;43.526;26.534;2022-07-29T02:03:09;99158.47;;;23.25;100.00
10618;BME280;5356;43.526;26.534;2022-07-29T02:05:37;99161.00;;;23.22;100.00
10618;BME280;5356;43.526;26.534;2022-07-29T02:08:05;99152.63;;;23.18;100.00
10618;BME280;5356;43.526;26.534;2022-07-29T02:10:33;99156.28;;;23.14;100.00
10618;BME280;5356;43.526;26.534;2022-07-29T02:12:59;99148.22;;;23.08;100.00
10618;BME280;5356;43.526;26.534;2022-07-29T02:15:29;99150.84;;;23.14;100.00
10618;BME280;5356;43.526;26.534;2022-07-29T02:18:02;99141.56;;;23.15;100.00
10618;BME280;5356;43.526;26.534;2022-07-29T02:20:30;99143.50;;;23.14;100.00
10618;BME280;5356;43.526;26.534;2022-07-29T02:22:58;99149.81;;;23.09;100.00
10618;BME280;5356;43.526;26.534;2022-07-29T02:25:26;99146.91;;;23.06;100.00
10618;BME280;5356;43.526;26.534;2022-07-29T02:27:53;99143.00;;;22.98;100.00
10618;BME280;5356;43.526;26.534;2022-07-29T02:30:21;99140.59;;;22.97;100.00
10618;BME280;5356;43.526;26.534;2022-07-29T02:32:49;99140.06;;;22.95;100.00
10618;BME280;5356;43.526;26.534;2022-07-29T02:35:16;99137.56;;;22.84;100.00
10618;BME280;5356;43.526;26.534;2022-07-29T02:37:44;99141.16;;;22.80;100.00
10618;BME280;5356;43.526;26.534;2022-07-29T02:40:31;99148.28;;;22.76;100.00
10618;BME280;5356;43.526;26.534;2022-07-29T02:42:58;99151.63;;;22.73;100.00
10618;BME280;5356;43.526;26.534;2022-07-29T02:45:23;99152.91;;;22.75;100.00
10618;BME280;5356;43.526;26.534;2022-07-29T02:47:50;99155.97;;;22.74;100.00
10618;BME280;5356;43.526;26.534;2022-07-29T02:55:35;99168.59;;;22.64;100.00
10618;BME280;5356;43.526;26.534;2022-07-29T02:58:07;99166.47;;;22.61;100.00
10618;BME280;5356;43.526;26.534;2022-07-29T03:00:36;99163.97;;;22.51;100.00
10618;BME280;5356;43.526;26.534;2022-07-29T03:03:04;99162.56;;;22.54;100.00
10618;BME280;5356;43.526;26.534;2022-07-29T03:05:32;99164.06;;;22.46;100.00
10618;BME280;5356;43.526;26.534;2022-07-29T03:08:01;99159.91;;;22.35;100.00
10618;BME280;5356;43.526;26.534;2022-07-29T03:10:28;99168.34;;;22.33;100.00
10618;BME280;5356;43.526;26.534;2022-07-29T03:12:55;99163.75;;;22.34;100.00
10618;BME280;5356;43.526;26.534;2022-07-29T03:15:21;99169.66;;;22.36;100.00
10618;BME280;5356;43.526;26.534;2022-07-29T03:17:47;99180.22;;;22.37;100.00
10618;BME280;5356;43.526;26.534;2022-07-29T03:20:14;99167.78;;;22.36;100.00
10618;BME280;5356;43.526;26.534;2022-07-29T03:22:42;99164.41;;;22.26;100.00
10618;BME280;5356;43.526;26.534;2022-07-29T03:25:15;99174.06;;;22.32;100.00
10618;BME280;5356;43.526;26.534;2022-07-29T03:27:42;99173.88;;;22.28;100.00
10618;BME280;5356;43.526;26.534;2022-07-29T03:30:08;99172.47;;;22.31;100.00
10618;BME280;5356;43.526;26.534;2022-07-29T03:32:34;99174.97;;;22.27;100.00
10618;BME280;5356;43.526;26.534;2022-07-29T03:35:00;99177.41;;;22.29;100.00
10618;BME280;5356;43.526;26.534;2022-07-29T03:37:26;99184.50;;;22.25;100.00
10618;BME280;5356;43.526;26.534;2022-07-29T03:39:52;99185.09;;;22.22;100.00
10618;BME280;5356;43.526;26.534;2022-07-29T03:42:21;99185.25;;;22.11;100.00
10618;BME280;5356;43.526;26.534;2022-07-29T03:44:50;99182.88;;;22.05;100.00
10618;BME280;5356;43.526;26.534;2022-07-29T03:47:20;99186.44;;;22.05;100.00
10618;BME280;5356;43.526;26.534;2022-07-29T03:49:48;99183.19;;;22.03;100.00
10618;BME280;5356;43.526;26.534;2022-07-29T03:52:15;99178.06;;;22.02;100.00
10618;BME280;5356;43.526;26.534;2022-07-29T03:54:41;99172.88;;;22.05;100.00
10618;BME280;5356;43.526;26.534;2022-07-29T03:57:07;99172.88;;;22.05;100.00
10618;BME280;5356;43.526;26.534;2022-07-29T03:59:34;99178.28;;;22.05;100.00
10618;BME280;5356;43.526;26.534;2022-07-29T04:02:02;99177.38;;;22.10;100.00
10618;BME280;5356;43.526;26.534;2022-07-29T04:04:28;99171.16;;;22.09;100.00
10618;BME280;5356;43.526;26.534;2022-07-29T04:06:54;99171.38;;;22.13;100.00
10618;BME280;5356;43.526;26.534;2022-07-29T04:09:19;99169.16;;;22.15;100.00
10618;BME280;5356;43.526;26.534;2022-07-29T04:11:45;99164.78;;;22.19;100.00
10618;BME280;5356;43.526;26.534;2022-07-29T04:14:10;99161.78;;;22.21;100.00
10618;BME280;5356;43.526;26.534;2022-07-29T04:16:36;99173.66;;;22.25;100.00
10618;BME280;5356;43.526;26.534;2022-07-29T04:19:01;99177.41;;;22.29;100.00
10618;BME280;5356;43.526;26.534;2022-07-29T04:21:27;99180.50;;;22.36;100.00
10618;BME280;5356;43.526;26.534;2022-07-29T04:23:53;99181.03;;;22.38;100.00
10618;BME280;5356;43.526;26.534;2022-07-29T04:26:19;99182.53;;;22.44;100.00
10618;BME280;5356;43.526;26.534;2022-07-29T04:28:45;99188.22;;;22.48;100.00
10618;BME280;5356;43.526;26.534;2022-07-29T04:31:12;99193.25;;;22.54;100.00
10618;BME280;5356;43.526;26.534;2022-07-29T04:33:37;99195.34;;;22.57;100.00
10618;BME280;5356;43.526;26.534;2022-07-29T04:36:03;99197.06;;;22.67;100.00
10618;BME280;5356;43.526;26.534;2022-07-29T04:38:29;99197.91;;;22.81;100.00
10618;BME280;5356;43.526;26.534;2022-07-29T04:40:54;99207.16;;;22.94;100.00
10618;BME280;5356;43.526;26.534;2022-07-29T04:43:20;99199.56;;;22.96;100.00
10618;BME280;5356;43.526;26.534;2022-07-29T04:45:45;99208.63;;;23.05;100.00
10618;BME280;5356;43.526;26.534;2022-07-29T04:48:10;99209.41;;;23.06;100.00
10618;BME280;5356;43.526;26.534;2022-07-29T04:50:39;99198.97;;;23.13;100.00
10618;BME280;5356;43.526;26.534;2022-07-29T04:53:05;99205.72;;;23.16;100.00
10618;BME280;5356;43.526;26.534;2022-07-29T04:55:31;99217.69;;;23.15;100.00
10618;BME280;5356;43.526;26.534;2022-07-29T04:57:56;99210.03;;;23.17;100.00
10618;BME280;5356;43.526;26.534;2022-07-29T05:00:22;99216.06;;;23.27;100.00
10618;BME280;5356;43.526;26.534;2022-07-29T05:02:48;99211.63;;;23.31;100.00
10618;BME280;5356;43.526;26.534;2022-07-29T05:05:14;99225.03;;;23.42;100.00
10618;BME280;5356;43.526;26.534;2022-07-29T05:07:39;99226.81;;;23.46;100.00
10618;BME280;5356;43.526;26.534;2022-07-29T05:10:05;99225.00;;;23.56;100.00
10618;BME280;5356;43.526;26.534;2022-07-29T05:12:31;99219.25;;;23.57;100.00
10618;BME280;5356;43.526;26.534;2022-07-29T05:14:56;99219.84;;;23.68;100.00
10618;BME280;5356;43.526;26.534;2022-07-29T05:17:21;99205.84;;;23.74;100.00
10618;BME280;5356;43.526;26.534;2022-07-29T05:19:47;99209.75;;;23.82;100.00
10618;BME280;5356;43.526;26.534;2022-07-29T05:22:12;99203.47;;;23.95;100.00
10618;BME280;5356;43.526;26.534;2022-07-29T05:24:38;99207.75;;;24.10;100.00
10618;BME280;5356;43.526;26.534;2022-07-29T05:27:03;99213.44;;;24.23;100.00
10618;BME280;5356;43.526;26.534;2022-07-29T05:29:29;99210.28;;;24.29;100.00
10618;BME280;5356;43.526;26.534;2022-07-29T05:31:54;99211.94;;;24.39;100.00
10618;BME280;5356;43.526;26.534;2022-07-29T05:34:20;99219.22;;;24.44;100.00
10618;BME280;5356;43.526;26.534;2022-07-29T05:36:45;99221.84;;;24.49;100.00
10618;BME280;5356;43.526;26.534;2022-07-29T05:39:11;99228.13;;;24.58;100.00
10618;BME280;5356;43.526;26.534;2022-07-29T05:41:38;99228.00;;;24.63;100.00
10618;BME280;5356;43.526;26.534;2022-07-29T05:44:03;99224.38;;;24.76;100.00
10618;BME280;5356;43.526;26.534;2022-07-29T05:46:29;99230.19;;;24.83;100.00
10618;BME280;5356;43.526;26.534;2022-07-29T05:48:54;99229.22;;;24.88;100.00
10618;BME280;5356;43.526;26.534;2022-07-29T05:51:20;99229.59;;;24.95;99.57
10618;BME280;5356;43.526;26.534;2022-07-29T05:53:45;99228.50;;;25.05;98.60
10618;BME280;5356;43.526;26.534;2022-07-29T05:56:11;99224.22;;;25.13;97.89
10618;BME280;5356;43.526;26.534;2022-07-29T05:58:36;99227.16;;;25.25;96.85
10618;BME280;5356;43.526;26.534;2022-07-29T06:01:02;99228.44;;;25.27;96.04
10618;BME280;5356;43.526;26.534;2022-07-29T06:03:28;99216.47;;;25.46;95.21
10618;BME280;5356;43.526;26.534;2022-07-29T06:05:54;99223.38;;;25.52;94.76
10618;BME280;5356;43.526;26.534;2022-07-29T06:08:20;99223.56;;;25.64;93.88
10618;BME280;5356;43.526;26.534;2022-07-29T06:10:45;99223.75;;;25.68;93.12
10618;BME280;5356;43.526;26.534;2022-07-29T06:13:11;99220.53;;;25.74;92.13
10618;BME280;5356;43.526;26.534;2022-07-29T06:15:37;99222.00;;;25.98;91.77
10618;BME280;5356;43.526;26.534;2022-07-29T06:18:02;99208.34;;;26.15;91.01
10618;BME280;5356;43.526;26.534;2022-07-29T06:20:29;99217.66;;;26.32;90.38
10618;BME280;5356;43.526;26.534;2022-07-29T06:22:57;99220.88;;;26.42;88.87
10618;BME280;5356;43.526;26.534;2022-07-29T06:25:23;99216.19;;;26.60;88.51
10618;BME280;5356;43.526;26.534;2022-07-29T06:27:48;99219.06;;;26.73;87.05
10618;BME280;5356;43.526;26.534;2022-07-29T06:30:14;99216.44;;;26.85;85.75
10618;BME280;5356;43.526;26.534;2022-07-29T06:32:39;99218.63;;;27.00;84.66
10618;BME280;5356;43.526;26.534;2022-07-29T06:35:05;99221.03;;;27.02;82.83
10618;BME280;5356;43.526;26.534;2022-07-29T06:37:31;99212.78;;;27.10;80.54
10618;BME280;5356;43.526;26.534;2022-07-29T06:39:56;99209.72;;;27.21;78.67
10618;BME280;5356;43.526;26.534;2022-07-29T06:42:44;99212.56;;;27.33;78.27
10618;BME280;5356;43.526;26.534;2022-07-29T06:45:10;99208.34;;;27.36;77.20
10618;BME280;5356;43.526;26.534;2022-07-29T06:47:36;99215.19;;;27.50;76.90
10618;BME280;5356;43.526;26.534;2022-07-29T06:50:03;99221.75;;;27.58;75.43
10618;BME280;5356;43.526;26.534;2022-07-29T06:52:29;99210.66;;;27.75;74.97
10618;BME280;5356;43.526;26.534;2022-07-29T06:54:54;99211.81;;;27.95;74.42
10618;BME280;5356;43.526;26.534;2022-07-29T06:57:21;99214.16;;;28.06;73.32
10618;BME280;5356;43.526;26.534;2022-07-29T06:59:46;99211.19;;;28.11;71.17
10618;BME280;5356;43.526;26.534;2022-07-29T07:02:12;99212.66;;;28.29;70.22
10618;BME280;5356;43.526;26.534;2022-07-29T07:04:38;99212.88;;;28.36;68.30
10618;BME280;5356;43.526;26.534;2022-07-29T07:07:03;99209.03;;;28.37;68.18
10618;BME280;5356;43.526;26.534;2022-07-29T07:09:28;99210.03;;;28.54;68.72
10618;BME280;5356;43.526;26.534;2022-07-29T07:11:54;99208.78;;;28.63;67.29
10618;BME280;5356;43.526;26.534;2022-07-29T07:14:19;99208.69;;;28.72;65.70
10618;BME280;5356;43.526;26.534;2022-07-29T07:16:45;99210.19;;;28.82;65.40
10618;BME280;5356;43.526;26.534;2022-07-29T07:19:10;99219.44;;;28.90;64.35
10618;BME280;5356;43.526;26.534;2022-07-29T07:21:36;99208.72;;;28.97;64.04
10618;BME280;5356;43.526;26.534;2022-07-29T07:24:01;99214.00;;;29.14;64.40
10618;BME280;5356;43.526;26.534;2022-07-29T07:26:27;99212.41;;;29.25;64.05
10618;BME280;5356;43.526;26.534;2022-07-29T07:28:53;99216.53;;;29.31;62.94
10618;BME280;5356;43.526;26.534;2022-07-29T07:31:18;99210.56;;;29.42;62.30
10618;BME280;5356;43.526;26.534;2022-07-29T07:33:44;99206.44;;;29.48;61.50
10618;BME280;5356;43.526;26.534;2022-07-29T07:36:09;99210.13;;;29.64;60.49
10618;BME280;5356;43.526;26.534;2022-07-29T07:38:35;99207.09;;;29.69;59.52
10618;BME280;5356;43.526;26.534;2022-07-29T07:41:00;99210.13;;;29.64;58.32
10618;BME280;5356;43.526;26.534;2022-07-29T07:43:26;99204.13;;;29.62;58.09
10618;BME280;5356;43.526;26.534;2022-07-29T07:45:52;99215.56;;;29.76;56.88
10618;BME280;5356;43.526;26.534;2022-07-29T07:48:18;99200.94;;;29.72;55.80
10618;BME280;5356;43.526;26.534;2022-07-29T07:50:43;99204.06;;;29.99;56.82
10618;BME280;5356;43.526;26.534;2022-07-29T07:53:09;99201.00;;;30.16;56.54
10618;BME280;5356;43.526;26.534;2022-07-29T07:55:39;99205.13;;;30.23;55.17
10618;BME280;5356;43.526;26.534;2022-07-29T07:58:05;99200.25;;;30.32;53.44
10618;BME280;5356;43.526;26.534;2022-07-29T08:00:31;99203.84;;;30.48;54.13
10618;BME280;5356;43.526;26.534;2022-07-29T08:02:57;99204.13;;;30.59;53.61
10618;BME280;5356;43.526;26.534;2022-07-29T08:05:23;99201.13;;;30.64;53.25
10618;BME280;5356;43.526;26.534;2022-07-29T08:07:48;99199.06;;;30.77;52.61
10618;BME280;5356;43.526;26.534;2022-07-29T08:10:15;99198.13;;;30.69;51.53
10618;BME280;5356;43.526;26.534;2022-07-29T08:13:07;99199.91;;;30.77;51.28
10618;BME280;5356;43.526;26.534;2022-07-29T08:15:33;99201.06;;;30.92;50.85
10618;BME280;5356;43.526;26.534;2022-07-29T08:17:59;99192.19;;;30.99;50.83
10618;BME280;5356;43.526;26.534;2022-07-29T08:20:25;99195.34;;;31.17;51.49
10618;BME280;5356;43.526;26.534;2022-07-29T08:22:50;99195.53;;;31.24;50.60
10618;BME280;5356;43.526;26.534;2022-07-29T08:25:16;99203.53;;;31.29;49.70
10618;BME280;5356;43.526;26.534;2022-07-29T08:27:48;99198.19;;;31.36;48.77
10618;BME280;5356;43.526;26.534;2022-07-29T08:30:14;99196.34;;;31.40;47.80
10618;BME280;5356;43.526;26.534;2022-07-29T08:32:39;99192.78;;;31.40;47.68
10618;BME280;5356;43.526;26.534;2022-07-29T08:35:05;99197.94;;;31.41;47.16
10618;BME280;5356;43.526;26.534;2022-07-29T08:37:31;99190.63;;;31.49;47.34
10618;BME280;5356;43.526;26.534;2022-07-29T08:39:56;99197.09;;;31.57;47.66
10618;BME280;5356;43.526;26.534;2022-07-29T08:42:22;99191.41;;;31.49;46.13
10618;BME280;5356;43.526;26.534;2022-07-29T08:44:48;99186.22;;;31.64;46.79
10618;BME280;5356;43.526;26.534;2022-07-29T08:47:14;99191.69;;;31.80;46.55
10618;BME280;5356;43.526;26.534;2022-07-29T08:49:40;99192.59;;;31.87;45.71
10618;BME280;5356;43.526;26.534;2022-07-29T08:52:06;99185.31;;;31.95;46.15
10618;BME280;5356;43.526;26.534;2022-07-29T08:54:32;99178.84;;;32.07;45.67
10618;BME280;5356;43.526;26.534;2022-07-29T08:56:58;99174.06;;;32.23;45.56
10618;BME280;5356;43.526;26.534;2022-07-29T08:59:26;99178.41;;;32.24;44.53
10618;BME280;5356;43.526;26.534;2022-07-29T09:01:53;99177.31;;;32.29;44.51
10618;BME280;5356;43.526;26.534;2022-07-29T09:04:20;99176.22;;;32.33;44.58
10618;BME280;5356;43.526;26.534;2022-07-29T09:06:48;99168.66;;;32.50;44.65
10618;BME280;5356;43.526;26.534;2022-07-29T09:09:15;99161.75;;;32.59;44.59
10618;BME280;5356;43.526;26.534;2022-07-29T09:11:41;99163.81;;;32.66;43.89
10618;BME280;5356;43.526;26.534;2022-07-29T09:14:07;99163.94;;;32.73;44.04
10618;BME280;5356;43.526;26.534;2022-07-29T09:16:55;99167.84;;;32.95;43.62
10618;BME280;5356;43.526;26.534;2022-07-29T09:21:50;99159.56;;;32.95;42.92
10618;BME280;5356;43.526;26.534;2022-07-29T09:24:46;99156.38;;;32.93;43.01
10618;BME280;5356;43.526;26.534;2022-07-29T09:29:44;99158.81;;;33.21;42.18
10618;BME280;5356;43.526;26.534;2022-07-29T09:32:10;99150.28;;;33.34;42.10
10618;BME280;5356;43.526;26.534;2022-07-29T09:34:36;99149.22;;;33.42;42.20
10618;BME280;5356;43.526;26.534;2022-07-29T09:37:02;99141.25;;;33.37;41.77
10618;BME280;5356;43.526;26.534;2022-07-29T09:39:39;99142.94;;;33.45;41.42
10618;BME280;5356;43.526;26.534;2022-07-29T09:42:13;99141.69;;;33.39;41.01
10618;BME280;5356;43.526;26.534;2022-07-29T09:44:52;99146.34;;;33.61;41.77
10618;BME280;5356;43.526;26.534;2022-07-29T09:47:18;99141.56;;;33.58;41.30
10618;BME280;5356;43.526;26.534;2022-07-29T09:49:57;99143.25;;;33.66;41.09
10618;BME280;5356;43.526;26.534;2022-07-29T09:52:24;99142.16;;;33.74;40.31
10618;BME280;5356;43.526;26.534;2022-07-29T09:54:50;99149.00;;;33.84;40.54
10618;BME280;5356;43.526;26.534;2022-07-29T09:57:27;99141.19;;;33.93;40.18
10618;BME280;5356;43.526;26.534;2022-07-29T10:00:08;99139.31;;;34.01;39.64
10618;BME280;5356;43.526;26.534;2022-07-29T10:02:36;99147.03;;;34.22;39.60
10618;BME280;5356;43.526;26.534;2022-07-29T10:05:04;99135.97;;;34.18;38.85
10618;BME280;5356;43.526;26.534;2022-07-29T10:07:43;99136.94;;;34.37;39.23
10618;BME280;5356;43.526;26.534;2022-07-29T10:10:09;99129.88;;;34.43;38.89
10618;BME280;5356;43.526;26.534;2022-07-29T10:12:48;99132.25;;;34.45;38.26
10618;BME280;5356;43.526;26.534;2022-07-29T10:15:15;99125.22;;;34.54;38.23
10618;BME280;5356;43.526;26.534;2022-07-29T10:17:41;99128.16;;;34.69;38.16
10618;BME280;5356;43.526;26.534;2022-07-29T10:20:07;99128.59;;;34.78;37.96
10618;BME280;5356;43.526;26.534;2022-07-29T10:22:33;99128.72;;;34.96;37.85
10618;BME280;5356;43.526;26.534;2022-07-29T10:24:59;99128.00;;;35.02;37.65
10618;BME280;5356;43.526;26.534;2022-07-29T10:27:24;99130.34;;;35.04;36.93
10618;BME280;5356;43.526;26.534;2022-07-29T10:29:50;99135.56;;;35.09;37.52
10618;BME280;5356;43.526;26.534;2022-07-29T10:38:04;99124.16;;;35.18;36.72
10618;BME280;5356;43.526;26.534;2022-07-29T10:43:43;99108.34;;;35.22;36.97
10618;BME280;5356;43.526;26.534;2022-07-29T10:46:10;99113.56;;;35.34;36.68
10618;BME280;5356;43.526;26.534;2022-07-29T10:49:08;99106.50;;;35.47;36.53
10618;BME280;5356;43.526;26.534;2022-07-29T10:51:53;99116.38;;;35.52;36.01
10618;BME280;5356;43.526;26.534;2022-07-29T10:57:15;99113.31;;;35.68;36.03
10618;BME280;5356;43.526;26.534;2022-07-29T10:59:42;99106.63;;;35.76;36.13
10618;BME280;5356;43.526;26.534;2022-07-29T11:05:05;99100.75;;;35.95;35.95
10618;BME280;5356;43.526;26.534;2022-07-29T11:07:32;99101.16;;;36.08;35.59
10618;BME280;5356;43.526;26.534;2022-07-29T11:15:08;99101.13;;;35.97;35.44
10618;BME280;5356;43.526;26.534;2022-07-29T11:20:41;99094.34;;;35.70;34.99
10618;BME280;5356;43.526;26.534;2022-07-29T11:23:25;99099.84;;;35.66;34.67
10618;BME280;5356;43.526;26.534;2022-07-29T11:34:31;99067.00;;;34.95;35.98
10618;BME280;5356;43.526;26.534;2022-07-29T11:39:33;99072.38;;;34.67;35.75
10618;BME280;5356;43.526;26.534;2022-07-29T11:47:26;99071.16;;;35.19;35.69
10618;BME280;5356;43.526;26.534;2022-07-29T11:49:54;99067.69;;;35.47;35.76
10618;BME280;5356;43.526;26.534;2022-07-29T11:52:20;99066.97;;;35.61;35.58
10618;BME280;5356;43.526;26.534;2022-07-29T11:54:50;99058.28;;;35.77;35.13
10618;BME280;5356;43.526;26.534;2022-07-29T11:57:19;99046.81;;;35.89;35.20
10618;BME280;5356;43.526;26.534;2022-07-29T11:59:46;99039.72;;;35.95;34.91
10618;BME280;5356;43.526;26.534;2022-07-29T12:02:13;99053.22;;;36.15;34.83
10618;BME280;5356;43.526;26.534;2022-07-29T12:04:52;99052.47;;;36.32;34.30
10618;BME280;5356;43.526;26.534;2022-07-29T12:07:18;99043.31;;;36.42;33.94
10618;BME280;5356;43.526;26.534;2022-07-29T12:09:51;99042.13;;;36.29;34.17
10618;BME280;5356;43.526;26.534;2022-07-29T12:12:17;99038.94;;;36.09;34.46
10618;BME280;5356;43.526;26.534;2022-07-29T12:14:43;99038.91;;;35.95;34.21
10618;BME280;5356;43.526;26.534;2022-07-29T12:17:28;99037.38;;;36.05;34.05
10618;BME280;5356;43.526;26.534;2022-07-29T12:19:55;99026.28;;;36.15;34.10
10618;BME280;5356;43.526;26.534;2022-07-29T12:22:32;99026.28;;;36.33;33.68
10618;BME280;5356;43.526;26.534;2022-07-29T12:25:03;99025.06;;;36.45;33.23
10618;BME280;5356;43.526;26.534;2022-07-29T12:27:30;99015.97;;;36.48;33.26
10618;BME280;5356;43.526;26.534;2022-07-29T12:29:58;99011.19;;;36.63;33.21
10618;BME280;5356;43.526;26.534;2022-07-29T12:32:36;99011.19;;;36.70;32.99
10618;BME280;5356;43.526;26.534;2022-07-29T12:35:04;99017.09;;;36.86;33.38
10618;BME280;5356;43.526;26.534;2022-07-29T12:37:32;99007.13;;;37.00;32.78
10618;BME280;5356;43.526;26.534;2022-07-29T12:39:58;99010.28;;;37.13;32.80
10618;BME280;5356;43.526;26.534;2022-07-29T12:42:24;99013.38;;;37.33;32.78
10618;BME280;5356;43.526;26.534;2022-07-29T12:44:50;99006.09;;;37.57;32.50
10618;BME280;5356;43.526;26.534;2022-07-29T12:47:17;98998.91;;;37.66;32.15
10618;BME280;5356;43.526;26.534;2022-07-29T12:49:44;98992.22;;;37.57;32.07
10618;BME280;5356;43.526;26.534;2022-07-29T12:52:29;98988.47;;;37.81;32.07
10618;BME280;5356;43.526;26.534;2022-07-29T12:54:55;98997.69;;;37.67;31.29
10618;BME280;5356;43.526;26.534;2022-07-29T12:57:21;98986.97;;;37.69;31.87
10618;BME280;5356;43.526;26.534;2022-07-29T13:00:08;98993.91;;;37.99;31.40
10618;BME280;5356;43.526;26.534;2022-07-29T13:02:36;98985.19;;;38.01;31.46
10618;BME280;5356;43.526;26.534;2022-07-29T13:05:04;98982.72;;;37.54;31.76
10618;BME280;5356;43.526;26.534;2022-07-29T13:07:32;98984.44;;;37.19;32.25
10618;BME280;5356;43.526;26.534;2022-07-29T13:10:18;98986.09;;;36.99;32.13
10618;BME280;5356;43.526;26.534;2022-07-29T13:13:09;98978.22;;;36.86;32.46
10618;BME280;5356;43.526;26.534;2022-07-29T13:15:42;98979.34;;;37.07;32.80
10618;BME280;5356;43.526;26.534;2022-07-29T13:18:30;98974.00;;;37.41;31.90
10618;BME280;5356;43.526;26.534;2022-07-29T13:21:10;98980.72;;;37.51;31.96
10618;BME280;5356;43.526;26.534;2022-07-29T13:23:36;98967.78;;;37.23;31.57
10618;BME280;5356;43.526;26.534;2022-07-29T13:26:06;98972.09;;;37.27;32.09
10618;BME280;5356;43.526;26.534;2022-07-29T13:28:32;98971.13;;;37.59;31.97
10618;BME280;5356;43.526;26.534;2022-07-29T13:30:58;98973.50;;;37.64;31.50
10618;BME280;5356;43.526;26.534;2022-07-29T13:33:23;98968.63;;;37.79;31.50
10618;BME280;5356;43.526;26.534;2022-07-29T13:35:49;98962.19;;;37.89;31.30
10618;BME280;5356;43.526;26.534;2022-07-29T13:38:14;98964.00;;;38.14;31.39
10618;BME280;5356;43.526;26.534;2022-07-29T13:40:41;98959.59;;;38.16;30.59
10618;BME280;5356;43.526;26.534;2022-07-29T13:43:09;98963.78;;;38.35;30.62
10618;BME280;5356;43.526;26.534;2022-07-29T13:45:34;98957.38;;;38.38;30.60
10618;BME280;5356;43.526;26.534;2022-07-29T13:48:01;98962.38;;;38.61;30.29
10618;BME280;5356;43.526;26.534;2022-07-29T13:50:26;98948.78;;;38.67;30.40
10618;BME280;5356;43.526;26.534;2022-07-29T13:52:52;98945.66;;;38.61;30.44
10618;BME280;5356;43.526;26.534;2022-07-29T13:55:17;98950.25;;;38.37;30.31
10618;BME280;5356;43.526;26.534;2022-07-29T13:57:43;98939.13;;;38.37;30.48
10618;BME280;5356;43.526;26.534;2022-07-29T14:00:09;98952.50;;;38.53;30.38
10618;BME280;5356;43.526;26.534;2022-07-29T14:02:35;98956.06;;;38.54;30.28
10618;BME280;5356;43.526;26.534;2022-07-29T14:05:02;98954.53;;;38.08;30.58